createdAt,value
2019-03-12T00:00:36.561Z,87.82
2019-03-12T00:01:36.689Z,87.62
2019-03-12T00:02:36.811Z,87.72
2019-03-12T00:03:36.939Z,88.10
2019-03-12T00:04:37.058Z,88.20
2019-03-12T00:05:37.202Z,87.82
2019-03-12T00:06:37.315Z,87.91
2019-03-12T00:07:37.457Z,87.62
2019-03-12T00:08:37.595Z,87.72
2019-03-12T00:09:37.706Z,86.96
2019-03-12T00:10:37.834Z,86.96
2019-03-12T00:11:37.956Z,87.24
2019-03-12T00:12:38.089Z,86.96
2019-03-12T00:13:38.209Z,87.05
2019-03-12T00:14:38.329Z,87.15
2019-03-12T00:15:38.453Z,86.68
2019-03-12T00:16:38.573Z,87.05
2019-03-12T00:17:38.700Z,87.43
2019-03-12T00:18:38.825Z,86.87
2019-03-12T00:19:38.962Z,87.05
2019-03-12T00:20:39.079Z,86.77
2019-03-12T00:21:39.207Z,87.53
2019-03-12T00:22:39.341Z,87.91
2019-03-12T00:23:39.468Z,88.48
2019-03-12T00:24:39.590Z,88.29
2019-03-12T00:25:39.721Z,88.57
2019-03-12T00:26:39.850Z,89.24
2019-03-12T00:27:39.973Z,89.14
2019-03-12T00:28:40.097Z,90.38
2019-03-12T00:29:40.230Z,90.47
2019-03-12T00:30:40.352Z,90.76
2019-03-12T00:31:40.476Z,90.57
2019-03-12T00:32:40.601Z,90.76
2019-03-12T00:33:40.728Z,90.76
2019-03-12T00:34:40.854Z,90.57
2019-03-12T00:35:40.977Z,90.28
2019-03-12T00:36:41.104Z,90.47
2019-03-12T00:37:41.232Z,89.90
2019-03-12T00:38:41.354Z,89.90
2019-03-12T00:39:41.484Z,90.85
2019-03-12T00:40:41.610Z,90.38
2019-03-12T00:41:41.743Z,91.04
2019-03-12T00:42:41.873Z,91.33
2019-03-12T00:43:41.992Z,91.80
2019-03-12T00:44:42.114Z,91.42
2019-03-12T00:45:42.247Z,91.66
2019-03-12T00:46:42.373Z,91.94
2019-03-12T00:47:42.497Z,91.52
2019-03-12T00:48:42.624Z,91.75
2019-03-12T00:49:42.753Z,92.42
2019-03-12T00:50:42.875Z,92.61
2019-03-12T00:51:42.994Z,93.56
2019-03-12T00:52:43.148Z,93.56
2019-03-12T00:53:43.270Z,93.37
2019-03-12T00:54:43.393Z,93.27
2019-03-12T00:55:43.516Z,93.46
2019-03-12T00:56:43.667Z,92.99
2019-03-12T00:57:43.785Z,93.27
2019-03-12T00:58:43.906Z,93.75
2019-03-12T00:59:44.031Z,93.75
2019-03-12T01:00:44.169Z,94.13
2019-03-12T01:01:44.293Z,94.13
2019-03-12T01:02:44.421Z,94.13
2019-03-12T01:03:44.540Z,94.23
2019-03-12T01:04:44.663Z,94.23
2019-03-12T01:05:44.789Z,94.42
2019-03-12T01:06:44.918Z,94.32
2019-03-12T01:07:45.097Z,95.07
2019-03-12T01:08:45.171Z,94.79
2019-03-12T01:09:45.318Z,94.98
2019-03-12T01:10:45.444Z,94.84
2019-03-12T01:11:45.560Z,95.36
2019-03-12T01:12:45.689Z,95.74
2019-03-12T01:13:45.836Z,94.79
2019-03-12T01:14:45.953Z,94.79
2019-03-12T01:15:46.077Z,94.70
2019-03-12T01:16:46.198Z,94.98
2019-03-12T01:17:46.334Z,94.42
2019-03-12T01:18:46.451Z,94.98
2019-03-12T01:19:46.585Z,95.17
2019-03-12T01:20:46.826Z,94.23
2019-03-12T01:21:46.865Z,94.60
2019-03-12T01:22:46.979Z,94.60
2019-03-12T01:23:47.105Z,94.51
2019-03-12T01:24:47.231Z,93.56
2019-03-12T01:25:47.358Z,93.08
2019-03-12T01:26:47.481Z,93.65
2019-03-12T01:27:47.608Z,93.46
2019-03-12T01:28:47.739Z,93.46
2019-03-12T01:29:47.861Z,93.65
2019-03-12T01:30:47.985Z,93.56
2019-03-12T01:31:48.175Z,92.71
2019-03-12T01:32:48.291Z,93.18
2019-03-12T01:33:48.421Z,92.23
2019-03-12T01:34:48.543Z,92.33
2019-03-12T01:35:48.711Z,92.04
2019-03-12T01:36:48.808Z,92.33
2019-03-12T01:37:48.930Z,91.85
2019-03-12T01:38:49.060Z,92.61
2019-03-12T01:39:49.188Z,92.80
2019-03-12T01:40:49.313Z,92.80
2019-03-12T01:41:49.438Z,93.37
2019-03-12T01:42:52.377Z,93.75
2019-03-12T01:43:49.700Z,93.75
2019-03-12T01:44:49.820Z,93.65
2019-03-12T01:45:49.960Z,93.84
2019-03-12T01:46:50.085Z,93.94
2019-03-12T01:47:50.229Z,94.42
2019-03-12T01:48:50.342Z,95.07
2019-03-12T01:49:50.468Z,95.07
2019-03-12T01:50:50.605Z,94.93
2019-03-12T01:51:50.737Z,95.31
2019-03-12T01:52:50.859Z,95.03
2019-03-12T01:53:50.983Z,95.03
2019-03-12T01:54:51.112Z,95.69
2019-03-12T01:55:51.283Z,95.55
2019-03-12T01:56:51.379Z,95.74
2019-03-12T01:57:51.572Z,95.65
2019-03-12T01:58:51.638Z,95.50
2019-03-12T01:59:51.767Z,95.79
2019-03-12T02:00:51.885Z,95.31
2019-03-12T02:01:52.013Z,95.88
2019-03-12T02:02:52.143Z,95.65
2019-03-12T02:03:52.281Z,95.84
2019-03-12T02:04:52.415Z,95.55
2019-03-12T02:05:52.535Z,95.84
2019-03-12T02:06:52.682Z,95.46
2019-03-12T02:07:52.798Z,95.93
2019-03-12T02:08:52.924Z,95.79
2019-03-12T02:09:53.053Z,95.98
2019-03-12T02:10:53.180Z,96.45
2019-03-12T02:11:53.303Z,96.36
2019-03-12T02:12:53.424Z,96.73
2019-03-12T02:13:53.551Z,97.69
2019-03-12T02:14:53.711Z,97.12
2019-03-12T02:15:53.815Z,97.21
2019-03-12T02:16:53.936Z,97.21
2019-03-12T02:17:54.066Z,97.02
2019-03-12T02:18:54.192Z,97.40
2019-03-12T02:19:54.324Z,97.69
2019-03-12T02:20:54.458Z,97.78
2019-03-12T02:21:54.585Z,97.50
2019-03-12T02:22:54.700Z,97.88
2019-03-12T02:23:54.827Z,97.40
2019-03-12T02:24:54.944Z,97.40
2019-03-12T02:25:55.092Z,97.21
2019-03-12T02:26:55.195Z,97.59
2019-03-12T02:27:55.324Z,97.59
2019-03-12T02:28:55.459Z,97.31
2019-03-12T02:29:55.601Z,97.31
2019-03-12T02:30:55.730Z,97.40
2019-03-12T02:31:55.858Z,97.40
2019-03-12T02:32:55.972Z,97.31
2019-03-12T02:33:56.107Z,97.07
2019-03-12T02:34:56.221Z,97.02
2019-03-12T02:35:56.345Z,96.78
2019-03-12T02:36:56.475Z,96.69
2019-03-12T02:37:56.613Z,96.97
2019-03-12T02:38:56.719Z,97.07
2019-03-12T02:39:56.840Z,96.31
2019-03-12T02:40:56.964Z,96.03
2019-03-12T02:41:57.111Z,95.84
2019-03-12T02:42:57.234Z,95.65
2019-03-12T02:43:57.363Z,95.55
2019-03-12T02:44:57.498Z,95.50
2019-03-12T02:45:57.611Z,95.84
2019-03-12T02:46:57.769Z,95.46
2019-03-12T02:47:57.870Z,95.46
2019-03-12T02:48:57.987Z,95.17
2019-03-12T02:49:58.135Z,95.46
2019-03-12T02:50:58.255Z,94.98
2019-03-12T02:51:58.376Z,95.03
2019-03-12T02:52:58.542Z,95.31
2019-03-12T02:53:58.625Z,95.22
2019-03-12T02:54:58.755Z,95.60
2019-03-12T02:56:01.810Z,95.98
2019-03-12T02:56:59.014Z,96.17
2019-03-12T02:57:59.134Z,96.64
2019-03-12T02:58:59.266Z,96.92
2019-03-12T02:59:59.381Z,96.55
2019-03-12T03:00:59.691Z,96.73
2019-03-12T03:01:59.639Z,97.02
2019-03-12T03:02:59.761Z,97.21
2019-03-12T03:03:59.896Z,96.73
2019-03-12T03:05:00.015Z,97.50
2019-03-12T03:06:00.139Z,96.55
2019-03-12T03:07:00.279Z,97.40
2019-03-12T03:08:00.403Z,97.40
2019-03-12T03:09:00.549Z,97.40
2019-03-12T03:10:00.746Z,97.97
2019-03-12T03:11:00.790Z,97.40
2019-03-12T03:12:00.911Z,97.50
2019-03-12T03:13:01.046Z,97.21
2019-03-12T03:14:01.163Z,97.21
2019-03-12T03:15:01.360Z,98.07
2019-03-12T03:16:01.427Z,97.21
2019-03-12T03:17:01.541Z,97.12
2019-03-12T03:18:01.692Z,97.40
2019-03-12T03:19:01.807Z,97.69
2019-03-12T03:20:01.934Z,96.64
2019-03-12T03:21:02.058Z,96.92
2019-03-12T03:22:02.216Z,96.92
2019-03-12T03:23:02.329Z,96.64
2019-03-12T03:24:02.457Z,96.17
2019-03-12T03:25:02.581Z,96.55
2019-03-12T03:26:02.718Z,96.26
2019-03-12T03:27:02.831Z,95.98
2019-03-12T03:28:02.957Z,96.08
2019-03-12T03:29:03.088Z,96.36
2019-03-12T03:30:03.264Z,96.36
2019-03-12T03:31:03.680Z,96.26
2019-03-12T03:32:03.551Z,95.98
2019-03-12T03:33:03.626Z,96.08
2019-03-12T03:34:03.762Z,96.73
2019-03-12T03:35:03.891Z,96.45
2019-03-12T03:36:04.003Z,96.55
2019-03-12T03:37:04.130Z,96.64
2019-03-12T03:38:04.277Z,96.83
2019-03-12T03:39:04.492Z,96.73
2019-03-12T03:40:04.502Z,96.83
2019-03-12T03:41:04.635Z,97.02
2019-03-12T03:42:04.835Z,97.12
2019-03-12T03:43:04.896Z,96.83
2019-03-12T03:44:05.028Z,96.64
2019-03-12T03:45:05.144Z,96.64
2019-03-12T03:46:05.283Z,96.92
2019-03-12T03:47:05.403Z,96.64
2019-03-12T03:48:05.537Z,96.83
2019-03-12T03:49:05.638Z,96.83
2019-03-12T03:50:05.805Z,96.64
2019-03-12T03:51:05.924Z,97.59
2019-03-12T03:52:06.047Z,97.31
2019-03-12T03:53:06.169Z,97.50
2019-03-12T03:54:06.307Z,97.31
2019-03-12T03:55:06.436Z,97.21
2019-03-12T03:56:06.560Z,97.40
2019-03-12T03:57:06.697Z,97.59
2019-03-12T03:58:06.820Z,96.92
2019-03-12T03:59:06.946Z,96.73
2019-03-12T04:00:07.092Z,96.73
2019-03-12T04:01:07.224Z,96.83
2019-03-12T04:02:07.332Z,97.21
2019-03-12T04:03:07.473Z,97.50
2019-03-12T04:04:07.609Z,97.12
2019-03-12T04:05:07.726Z,97.40
2019-03-12T04:06:07.872Z,97.12
2019-03-12T04:07:07.991Z,96.97
2019-03-12T04:08:08.114Z,97.45
2019-03-12T04:09:08.256Z,97.16
2019-03-12T04:10:08.379Z,96.97
2019-03-12T04:11:08.502Z,97.21
2019-03-12T04:12:08.629Z,97.16
2019-03-12T04:13:08.776Z,97.26
2019-03-12T04:14:08.892Z,97.45
2019-03-12T04:15:09.039Z,97.45
2019-03-12T04:16:09.150Z,97.26
2019-03-12T04:17:09.274Z,97.45
2019-03-12T04:18:09.417Z,96.88
2019-03-12T04:19:09.541Z,97.07
2019-03-12T04:20:09.662Z,96.88
2019-03-12T04:21:09.848Z,96.78
2019-03-12T04:22:09.935Z,97.35
2019-03-12T04:23:10.054Z,97.16
2019-03-12T04:24:10.174Z,96.97
2019-03-12T04:25:10.324Z,96.88
2019-03-12T04:26:10.444Z,96.88
2019-03-12T04:27:10.566Z,97.07
2019-03-12T04:28:10.704Z,96.78
2019-03-12T04:29:10.829Z,97.26
2019-03-12T04:30:10.953Z,97.35
2019-03-12T04:31:11.075Z,97.35
2019-03-12T04:32:11.197Z,97.07
2019-03-12T04:33:11.319Z,97.73
2019-03-12T04:34:11.460Z,97.07
2019-03-12T04:35:11.564Z,97.07
2019-03-12T04:36:11.689Z,97.26
2019-03-12T04:37:11.817Z,97.16
2019-03-12T04:38:12.045Z,96.69
2019-03-12T04:39:12.066Z,96.69
2019-03-12T04:40:12.185Z,96.59
2019-03-12T04:41:12.307Z,96.69
2019-03-12T04:42:12.443Z,96.41
2019-03-12T04:43:12.569Z,96.41
2019-03-12T04:44:12.690Z,96.50
2019-03-12T04:45:12.813Z,96.31
2019-03-12T04:46:12.942Z,96.41
2019-03-12T04:47:13.077Z,96.41
2019-03-12T04:48:13.198Z,97.07
2019-03-12T04:49:13.317Z,96.69
2019-03-12T04:50:13.452Z,96.41
2019-03-12T04:51:13.563Z,97.54
2019-03-12T04:52:13.684Z,97.45
2019-03-12T04:53:13.883Z,96.97
2019-03-12T04:54:13.941Z,96.50
2019-03-12T04:55:14.067Z,96.41
2019-03-12T04:56:14.186Z,96.50
2019-03-12T04:57:14.299Z,96.69
2019-03-12T04:58:14.437Z,96.88
2019-03-12T04:59:14.563Z,96.41
2019-03-12T05:00:14.684Z,96.50
2019-03-12T05:01:14.808Z,96.50
2019-03-12T05:02:14.930Z,96.31
2019-03-12T05:03:15.052Z,96.59
2019-03-12T05:04:15.177Z,96.69
2019-03-12T05:05:15.311Z,97.45
2019-03-12T05:06:15.429Z,97.45
2019-03-12T05:07:15.554Z,97.54
2019-03-12T05:08:15.674Z,97.16
2019-03-12T05:09:15.801Z,97.45
2019-03-12T05:10:15.927Z,96.88
2019-03-12T05:11:16.049Z,96.50
2019-03-12T05:12:16.174Z,96.59
2019-03-12T05:13:16.298Z,96.97
2019-03-12T05:14:16.419Z,96.41
2019-03-12T05:15:16.553Z,96.88
2019-03-12T05:16:16.672Z,97.07
2019-03-12T05:17:16.798Z,96.03
2019-03-12T05:18:16.922Z,96.59
2019-03-12T05:19:17.054Z,96.22
2019-03-12T05:20:17.168Z,96.22
2019-03-12T05:21:17.299Z,95.93
2019-03-12T05:22:17.411Z,95.93
2019-03-12T05:23:17.536Z,95.36
2019-03-12T05:24:17.663Z,95.93
2019-03-12T05:25:17.783Z,96.03
2019-03-12T05:26:17.909Z,95.93
2019-03-12T05:27:18.046Z,95.84
2019-03-12T05:28:18.157Z,95.55
2019-03-12T05:29:18.279Z,95.45
2019-03-12T05:30:18.406Z,94.70
2019-03-12T05:31:18.562Z,95.55
2019-03-12T05:32:18.645Z,95.65
2019-03-12T05:33:18.773Z,95.26
2019-03-12T05:34:18.894Z,95.26
2019-03-12T05:35:19.020Z,94.70
2019-03-12T05:36:19.166Z,94.89
2019-03-12T05:37:19.262Z,95.17
2019-03-12T05:38:19.396Z,95.26
2019-03-12T05:39:19.510Z,95.36
2019-03-12T05:40:19.640Z,95.07
2019-03-12T05:41:19.765Z,95.26
2019-03-12T05:42:19.897Z,95.55
2019-03-12T05:43:20.016Z,95.36
2019-03-12T05:44:20.139Z,95.36
2019-03-12T05:45:20.263Z,95.45
2019-03-12T05:46:20.385Z,95.26
2019-03-12T05:47:20.508Z,95.17
2019-03-12T05:48:20.630Z,95.07
2019-03-12T05:49:20.762Z,94.98
2019-03-12T05:50:20.879Z,95.07
2019-03-12T05:51:21.006Z,94.79
2019-03-12T05:52:21.131Z,94.51
2019-03-12T05:53:21.256Z,94.79
2019-03-12T05:54:21.375Z,94.79
2019-03-12T05:55:21.514Z,94.60
2019-03-12T05:56:21.636Z,94.60
2019-03-12T05:57:21.757Z,95.07
2019-03-12T05:58:21.887Z,93.94
2019-03-12T05:59:22.019Z,94.32
2019-03-12T06:00:22.127Z,94.70
2019-03-12T06:01:22.250Z,94.32
2019-03-12T06:02:22.383Z,94.23
2019-03-12T06:03:22.500Z,94.42
2019-03-12T06:04:22.629Z,94.23
2019-03-12T06:05:22.751Z,94.42
2019-03-12T06:06:22.871Z,93.46
2019-03-12T06:07:23.018Z,93.84
2019-03-12T06:08:23.137Z,93.08
2019-03-12T06:09:30.206Z,93.18
2019-03-12T06:10:23.390Z,93.27
2019-03-12T06:11:23.515Z,93.56
2019-03-12T06:12:23.654Z,92.99
2019-03-12T06:13:23.778Z,93.37
2019-03-12T06:14:23.882Z,92.80
2019-03-12T06:15:24.003Z,93.46
2019-03-12T06:16:24.131Z,93.08
2019-03-12T06:17:24.246Z,93.18
2019-03-12T06:18:24.378Z,93.46
2019-03-12T06:19:24.511Z,93.27
2019-03-12T06:20:24.631Z,93.18
2019-03-12T06:21:24.754Z,93.37
2019-03-12T06:22:24.879Z,93.65
2019-03-12T06:23:24.999Z,93.27
2019-03-12T06:24:25.127Z,93.65
2019-03-12T06:25:25.261Z,92.52
2019-03-12T06:26:25.379Z,92.80
2019-03-12T06:27:25.494Z,92.61
2019-03-12T06:28:25.622Z,93.18
2019-03-12T06:29:25.747Z,93.08
2019-03-12T06:30:26.119Z,93.18
2019-03-12T06:31:26.028Z,93.08
2019-03-12T06:32:26.152Z,92.80
2019-03-12T06:33:26.273Z,93.65
2019-03-12T06:34:26.403Z,93.65
2019-03-12T06:35:26.521Z,93.18
2019-03-12T06:36:26.646Z,93.37
2019-03-12T06:37:26.797Z,93.27
2019-03-12T06:38:26.920Z,93.75
2019-03-12T06:39:27.042Z,93.56
2019-03-12T06:40:27.164Z,93.18
2019-03-12T06:41:27.307Z,92.99
2019-03-12T06:42:27.427Z,93.18
2019-03-12T06:43:27.554Z,93.46
2019-03-12T06:44:27.678Z,93.56
2019-03-12T06:45:27.809Z,93.56
2019-03-12T06:46:27.931Z,93.37
2019-03-12T06:47:28.052Z,93.18
2019-03-12T06:48:28.175Z,93.18
2019-03-12T06:49:28.299Z,93.18
2019-03-12T06:50:28.439Z,92.71
2019-03-12T06:51:28.565Z,93.18
2019-03-12T06:52:28.693Z,93.65
2019-03-12T06:53:28.809Z,92.90
2019-03-12T06:54:28.935Z,93.46
2019-03-12T06:55:29.062Z,93.46
2019-03-12T06:56:29.191Z,93.18
2019-03-12T06:57:29.308Z,93.18
2019-03-12T06:58:29.463Z,93.08
2019-03-12T06:59:29.566Z,93.37
2019-03-12T07:00:29.690Z,93.27
2019-03-12T07:01:29.862Z,93.46
2019-03-12T07:02:29.975Z,93.27
2019-03-12T07:03:30.102Z,93.56
2019-03-12T07:04:30.221Z,93.37
2019-03-12T07:05:30.380Z,93.56
2019-03-12T07:06:30.500Z,92.90
2019-03-12T07:07:30.629Z,93.18
2019-03-12T07:08:30.764Z,92.71
2019-03-12T07:09:30.912Z,92.42
2019-03-12T07:10:31.024Z,92.80
2019-03-12T07:11:31.141Z,92.61
2019-03-12T07:12:31.304Z,92.99
2019-03-12T07:13:31.416Z,92.71
2019-03-12T07:14:31.538Z,92.80
2019-03-12T07:15:31.661Z,92.61
2019-03-12T07:16:31.814Z,93.37
2019-03-12T07:17:31.940Z,92.90
2019-03-12T07:18:32.057Z,92.52
2019-03-12T07:19:32.180Z,92.14
2019-03-12T07:20:32.322Z,92.28
2019-03-12T07:21:32.439Z,91.90
2019-03-12T07:22:32.567Z,92.94
2019-03-12T07:23:32.695Z,92.18
2019-03-12T07:24:32.832Z,92.28
2019-03-12T07:25:32.952Z,91.90
2019-03-12T07:26:33.089Z,92.09
2019-03-12T07:27:33.210Z,91.71
2019-03-12T07:28:33.346Z,91.80
2019-03-12T07:29:33.460Z,92.28
2019-03-12T07:30:33.585Z,92.38
2019-03-12T07:31:33.719Z,92.18
2019-03-12T07:32:33.842Z,91.90
2019-03-12T07:33:33.971Z,91.71
2019-03-12T07:34:36.840Z,91.71
2019-03-12T07:35:34.241Z,91.90
2019-03-12T07:36:34.375Z,91.38
2019-03-12T07:37:34.491Z,91.42
2019-03-12T07:38:34.609Z,90.76
2019-03-12T07:39:34.740Z,91.33
2019-03-12T07:40:34.865Z,91.71
2019-03-12T07:41:35.004Z,91.90
2019-03-12T07:42:35.120Z,92.18
2019-03-12T07:43:35.271Z,92.18
2019-03-12T07:44:35.394Z,92.28
2019-03-12T07:45:35.517Z,92.47
2019-03-12T07:46:35.669Z,91.61
2019-03-12T07:47:36.275Z,91.61
2019-03-12T07:48:35.912Z,91.80
2019-03-12T07:49:36.048Z,91.52
2019-03-12T07:50:36.164Z,91.61
2019-03-12T07:51:36.284Z,91.42
2019-03-12T07:52:36.410Z,91.14
2019-03-12T07:53:36.542Z,91.33
2019-03-12T07:54:36.674Z,91.33
2019-03-12T07:55:36.797Z,90.95
2019-03-12T07:56:36.923Z,91.14
2019-03-12T07:57:37.041Z,91.14
2019-03-12T07:58:37.177Z,90.86
2019-03-12T07:59:37.361Z,90.57
2019-03-12T08:00:37.426Z,90.57
2019-03-12T08:01:37.548Z,90.48
2019-03-12T08:02:37.681Z,90.67
2019-03-12T08:03:37.811Z,89.72
2019-03-12T08:04:37.924Z,89.15
2019-03-12T08:05:38.044Z,89.43
2019-03-12T08:06:38.200Z,88.87
2019-03-12T08:07:38.316Z,88.29
2019-03-12T08:08:38.433Z,88.10
2019-03-12T08:09:38.559Z,88.01
2019-03-12T08:10:38.684Z,88.53
2019-03-12T08:11:38.822Z,87.58
2019-03-12T08:12:38.961Z,86.54
2019-03-12T08:13:39.081Z,85.78
2019-03-12T08:14:39.205Z,86.25
2019-03-12T08:15:39.334Z,85.49
2019-03-12T08:16:39.488Z,86.25
2019-03-12T08:17:39.601Z,86.07
2019-03-12T08:18:39.721Z,85.68
2019-03-12T08:19:39.847Z,85.49
2019-03-12T08:20:39.993Z,86.25
2019-03-12T08:21:40.114Z,86.07
2019-03-12T08:22:40.246Z,86.54
2019-03-12T08:23:40.370Z,86.44
2019-03-12T08:24:40.594Z,87.11
2019-03-12T08:25:43.788Z,85.68
2019-03-12T08:26:40.774Z,85.11
2019-03-12T08:27:40.886Z,83.69
2019-03-12T08:28:41.034Z,83.88
2019-03-12T08:29:41.150Z,84.74
2019-03-12T08:30:41.268Z,85.02
2019-03-12T08:31:41.398Z,84.40
2019-03-12T08:32:41.544Z,85.06
2019-03-12T08:33:50.606Z,84.97
2019-03-12T08:34:41.893Z,84.21
2019-03-12T08:35:41.975Z,84.40
2019-03-12T08:36:42.194Z,84.21
2019-03-12T08:37:42.210Z,83.54
2019-03-12T08:38:42.340Z,82.78
2019-03-12T08:39:42.489Z,82.21
2019-03-12T08:40:52.055Z,82.40
2019-03-12T08:41:42.776Z,83.07
2019-03-12T08:42:53.966Z,82.59
2019-03-12T08:43:43.041Z,81.55
2019-03-12T08:44:43.166Z,81.55
2019-03-12T08:45:45.368Z,81.65
2019-03-12T08:46:43.434Z,81.36
2019-03-12T08:47:43.556Z,80.79
2019-03-12T08:48:43.689Z,80.22
2019-03-12T08:49:43.813Z,81.26
2019-03-12T08:50:43.978Z,80.60
2019-03-12T08:51:44.102Z,81.26
2019-03-12T08:52:44.233Z,82.21
2019-03-12T08:53:44.370Z,82.12
2019-03-12T08:54:53.782Z,81.65
2019-03-12T08:55:44.620Z,80.79
2019-03-12T08:56:44.746Z,80.79
2019-03-12T08:57:44.872Z,80.13
2019-03-12T08:58:44.999Z,80.35
2019-03-12T08:59:45.150Z,81.07
2019-03-12T09:00:45.277Z,81.02
2019-03-12T09:01:47.563Z,80.83
2019-03-12T09:02:45.523Z,80.07
2019-03-12T09:03:45.648Z,80.07
2019-03-12T09:04:45.773Z,80.16
2019-03-12T09:05:45.913Z,80.26
2019-03-12T09:06:46.038Z,80.07
2019-03-12T09:07:46.163Z,79.60
2019-03-12T09:08:46.285Z,79.41
2019-03-12T09:09:46.421Z,79.50
2019-03-12T09:10:46.546Z,78.64
2019-03-12T09:11:46.663Z,80.16
2019-03-12T09:12:46.796Z,79.79
2019-03-12T09:13:46.919Z,79.60
2019-03-12T09:14:47.076Z,79.03
2019-03-12T09:15:47.200Z,77.89
2019-03-12T09:16:47.324Z,77.60
2019-03-12T09:17:47.491Z,78.08
2019-03-12T09:18:47.602Z,77.70
2019-03-12T09:19:47.715Z,77.89
2019-03-12T09:20:47.855Z,76.93
2019-03-12T09:21:47.965Z,76.46
2019-03-12T09:22:48.090Z,76.75
2019-03-12T09:23:48.221Z,76.46
2019-03-12T09:24:48.354Z,76.93
2019-03-12T09:25:48.483Z,77.07
2019-03-12T09:26:48.610Z,76.27
2019-03-12T09:27:48.741Z,77.17
2019-03-12T09:28:48.861Z,77.17
2019-03-12T09:29:48.975Z,77.83
2019-03-12T09:30:49.108Z,76.21
2019-03-12T09:31:49.230Z,76.03
2019-03-12T09:32:49.378Z,75.84
2019-03-12T09:33:49.495Z,75.36
2019-03-12T09:34:49.616Z,75.36
2019-03-12T09:35:49.743Z,76.21
2019-03-12T09:36:49.893Z,75.64
2019-03-12T09:37:50.019Z,75.64
2019-03-12T09:38:50.149Z,75.36
2019-03-12T09:39:50.269Z,74.98
2019-03-12T09:40:50.395Z,75.26
2019-03-12T09:41:50.509Z,75.64
2019-03-12T09:42:50.638Z,75.26
2019-03-12T09:43:50.787Z,75.64
2019-03-12T09:44:50.895Z,75.36
2019-03-12T09:45:51.017Z,75.64
2019-03-12T09:46:51.143Z,75.55
2019-03-12T09:47:51.272Z,75.64
2019-03-12T09:48:51.418Z,75.45
2019-03-12T09:49:51.534Z,74.98
2019-03-12T09:50:51.668Z,74.98
2019-03-12T09:51:51.787Z,74.98
2019-03-12T09:52:51.940Z,74.79
2019-03-12T09:53:52.058Z,75.30
2019-03-12T09:54:52.196Z,75.30
2019-03-12T09:55:52.322Z,75.02
2019-03-12T09:56:52.477Z,73.97
2019-03-12T09:57:52.598Z,74.03
2019-03-12T09:58:52.723Z,75.30
2019-03-12T09:59:52.849Z,75.21
2019-03-12T10:00:52.984Z,74.73
2019-03-12T10:01:53.134Z,72.89
2019-03-12T10:02:53.256Z,72.45
2019-03-12T10:03:53.462Z,72.60
2019-03-12T10:04:53.502Z,73.11
2019-03-12T10:05:53.627Z,73.02
2019-03-12T10:06:53.751Z,73.97
2019-03-12T10:07:53.882Z,73.02
2019-03-12T10:08:54.019Z,73.21
2019-03-12T10:09:54.130Z,73.11
2019-03-12T10:10:54.258Z,73.02
2019-03-12T10:11:54.389Z,74.16
2019-03-12T10:12:54.527Z,72.64
2019-03-12T10:13:54.687Z,71.72
2019-03-12T10:14:54.808Z,70.83
2019-03-12T10:15:54.937Z,71.12
2019-03-12T10:16:55.067Z,71.69
2019-03-12T10:17:55.192Z,71.31
2019-03-12T10:18:55.329Z,71.12
2019-03-12T10:19:55.444Z,71.31
2019-03-12T10:20:55.569Z,71.31
2019-03-12T10:21:55.697Z,70.93
2019-03-12T10:22:55.831Z,71.50
2019-03-12T10:23:55.955Z,71.59
2019-03-12T10:24:56.078Z,72.07
2019-03-12T10:25:56.225Z,71.02
2019-03-12T10:26:56.341Z,70.36
2019-03-12T10:27:56.476Z,70.74
2019-03-12T10:28:56.600Z,69.69
2019-03-12T10:29:56.731Z,68.84
2019-03-12T10:30:56.864Z,68.55
2019-03-12T10:31:56.988Z,69.02
2019-03-12T10:32:57.116Z,69.02
2019-03-12T10:33:57.244Z,69.54
2019-03-12T10:34:57.375Z,68.49
2019-03-12T10:35:57.598Z,67.63
2019-03-12T10:37:10.975Z,67.25
2019-03-12T10:37:57.768Z,67.25
2019-03-12T10:38:57.899Z,67.44
2019-03-12T10:39:58.017Z,67.73
2019-03-12T10:40:58.155Z,66.59
2019-03-12T10:41:58.294Z,65.83
2019-03-12T10:42:58.440Z,66.55
2019-03-12T10:43:58.564Z,65.80
2019-03-12T10:44:58.686Z,65.70
2019-03-12T10:45:58.824Z,65.70
2019-03-12T10:46:58.945Z,65.60
2019-03-12T10:47:59.069Z,65.80
2019-03-12T10:48:59.206Z,66.65
2019-03-12T10:49:59.341Z,67.03
2019-03-12T10:50:59.460Z,66.27
2019-03-12T10:51:59.585Z,66.08
2019-03-12T10:52:59.713Z,66.55
2019-03-12T10:53:59.844Z,66.08
2019-03-12T10:55:12.407Z,66.17
2019-03-12T10:56:00.099Z,66.36
2019-03-12T10:57:00.235Z,65.89
2019-03-12T10:58:00.371Z,65.51
2019-03-12T10:59:00.487Z,65.70
2019-03-12T11:00:00.646Z,66.27
2019-03-12T11:01:00.749Z,65.80
2019-03-12T11:02:00.872Z,65.60
2019-03-12T11:03:01.001Z,64.08
2019-03-12T11:04:01.136Z,64.27
2019-03-12T11:05:01.288Z,64.27
2019-03-12T11:06:01.425Z,64.75
2019-03-12T11:07:01.545Z,64.56
2019-03-12T11:08:01.667Z,64.75
2019-03-12T11:09:01.834Z,64.94
2019-03-12T11:10:01.946Z,65.13
2019-03-12T11:11:02.080Z,65.60
2019-03-12T11:12:02.200Z,66.08
2019-03-12T11:13:02.365Z,66.55
2019-03-12T11:14:02.524Z,66.46
2019-03-12T11:15:02.616Z,66.27
2019-03-12T11:16:02.739Z,66.55
2019-03-12T11:17:02.892Z,65.80
2019-03-12T11:18:03.011Z,65.41
2019-03-12T11:19:03.134Z,65.32
2019-03-12T11:20:03.264Z,64.56
2019-03-12T11:21:03.400Z,64.27
2019-03-12T11:22:03.547Z,64.97
2019-03-12T11:23:03.662Z,64.69
2019-03-12T11:24:03.800Z,64.40
2019-03-12T11:25:03.920Z,64.40
2019-03-12T11:26:04.052Z,64.87
2019-03-12T11:27:04.175Z,63.70
2019-03-12T11:28:04.306Z,64.18
2019-03-12T11:29:04.460Z,64.59
2019-03-12T11:30:04.575Z,65.16
2019-03-12T11:31:04.701Z,64.59
2019-03-12T11:32:04.832Z,63.07
2019-03-12T11:33:04.960Z,64.02
2019-03-12T11:34:05.092Z,63.83
2019-03-12T11:35:05.221Z,63.83
2019-03-12T11:36:05.351Z,63.92
2019-03-12T11:37:05.475Z,63.54
2019-03-12T11:38:05.625Z,63.26
2019-03-12T11:39:05.754Z,64.21
2019-03-12T11:40:05.970Z,64.78
2019-03-12T11:41:06.049Z,64.50
2019-03-12T11:42:06.469Z,64.59
2019-03-12T11:43:06.293Z,64.50
2019-03-12T11:44:06.422Z,64.50
2019-03-12T11:45:13.641Z,64.31
2019-03-12T11:46:06.757Z,63.92
2019-03-12T11:47:06.806Z,64.11
2019-03-12T11:48:06.947Z,63.17
2019-03-12T11:49:07.069Z,62.78
2019-03-12T11:50:07.199Z,63.17
2019-03-12T11:51:07.347Z,63.26
2019-03-12T11:52:07.474Z,64.02
2019-03-12T11:53:07.760Z,63.07
2019-03-12T11:54:07.787Z,63.07
2019-03-12T11:55:07.876Z,63.64
2019-03-12T11:56:08.008Z,63.54
2019-03-12T11:57:08.200Z,63.07
2019-03-12T11:58:08.313Z,63.17
2019-03-12T11:59:08.421Z,63.17
2019-03-12T12:00:08.565Z,63.17
2019-03-12T12:01:08.724Z,61.96
2019-03-12T12:02:08.814Z,62.43
2019-03-12T12:03:08.982Z,62.24
2019-03-12T12:04:09.105Z,61.48
2019-03-12T12:05:09.248Z,62.05
2019-03-12T12:06:09.765Z,62.15
2019-03-12T12:07:09.516Z,61.86
2019-03-12T12:08:09.695Z,61.67
2019-03-12T12:09:09.831Z,62.24
2019-03-12T12:10:09.915Z,61.58
2019-03-12T12:11:10.038Z,62.15
2019-03-12T12:12:10.174Z,62.30
2019-03-12T12:13:10.300Z,62.30
2019-03-12T12:14:10.470Z,62.97
2019-03-12T12:15:10.570Z,63.01
2019-03-12T12:16:10.705Z,63.64
2019-03-12T12:17:10.865Z,63.17
2019-03-12T12:18:10.965Z,63.45
2019-03-12T12:19:11.095Z,63.64
2019-03-12T12:20:11.255Z,64.50
2019-03-12T12:21:11.380Z,64.31
2019-03-12T12:22:11.503Z,63.54
2019-03-12T12:23:11.640Z,63.64
2019-03-12T12:24:11.770Z,63.07
2019-03-12T12:25:11.898Z,63.17
2019-03-12T12:26:12.020Z,63.26
2019-03-12T12:27:12.150Z,63.64
2019-03-12T12:28:12.281Z,64.02
2019-03-12T12:29:12.406Z,63.07
2019-03-12T12:30:12.538Z,62.88
2019-03-12T12:31:12.661Z,62.97
2019-03-12T12:32:12.813Z,62.21
2019-03-12T12:33:12.938Z,63.07
2019-03-12T12:34:13.073Z,62.69
2019-03-12T12:35:13.205Z,63.17
2019-03-12T12:36:13.354Z,63.26
2019-03-12T12:37:13.933Z,63.07
2019-03-12T12:38:13.608Z,62.69
2019-03-12T12:39:13.739Z,63.07
2019-03-12T12:40:13.889Z,62.97
2019-03-12T12:41:14.006Z,62.02
2019-03-12T12:42:14.144Z,62.30
2019-03-12T12:43:14.261Z,62.97
2019-03-12T12:44:14.450Z,62.40
2019-03-12T12:45:14.593Z,62.40
2019-03-12T12:46:14.725Z,62.21
2019-03-12T12:47:14.849Z,62.78
2019-03-12T12:48:14.992Z,63.17
2019-03-12T12:49:15.116Z,62.78
2019-03-12T12:50:15.249Z,64.02
2019-03-12T12:51:15.388Z,63.17
2019-03-12T12:52:15.526Z,62.30
2019-03-12T12:53:15.667Z,62.21
2019-03-12T12:54:15.830Z,62.02